sensor_id;sensor_type;location;lat;lon;timestamp;P1;durP1;ratioP1;P2;durP2;ratioP2
13244;SDS011;6689;53.400;12.486;2023-07-09T00:02:12;4.38;;;2.92;;
13244;SDS011;6689;53.400;12.486;2023-07-09T00:04:40;4.82;;;3.08;;
13244;SDS011;6689;53.400;12.486;2023-07-09T00:07:12;4.82;;;3.22;;
13244;SDS011;6689;53.400;12.486;2023-07-09T00:09:45;4.68;;;3.33;;
13244;SDS011;6689;53.400;12.486;2023-07-09T00:12:13;4.75;;;3.40;;
13244;SDS011;6689;53.400;12.486;2023-07-09T00:14:41;4.85;;;3.38;;
13244;SDS011;6689;53.400;12.486;2023-07-09T00:17:10;3.42;;;3.00;;
13244;SDS011;6689;53.400;12.486;2023-07-09T00:19:38;4.15;;;3.08;;
13244;SDS011;6689;53.400;12.486;2023-07-09T00:22:13;5.55;;;2.90;;
13244;SDS011;6689;53.400;12.486;2023-07-09T00:24:42;4.53;;;2.67;;
13244;SDS011;6689;53.400;12.486;2023-07-09T00:27:12;4.40;;;3.03;;
13244;SDS011;6689;53.400;12.486;2023-07-09T00:29:40;4.00;;;3.08;;
13244;SDS011;6689;53.400;12.486;2023-07-09T00:32:17;6.55;;;3.30;;
13244;SDS011;6689;53.400;12.486;2023-07-09T00:34:45;6.22;;;2.92;;
13244;SDS011;6689;53.400;12.486;2023-07-09T00:37:14;5.20;;;3.35;;
13244;SDS011;6689;53.400;12.486;2023-07-09T00:39:43;5.82;;;2.95;;
13244;SDS011;6689;53.400;12.486;2023-07-09T00:42:13;5.35;;;3.55;;
13244;SDS011;6689;53.400;12.486;2023-07-09T00:44:43;3.97;;;3.10;;
13244;SDS011;6689;53.400;12.486;2023-07-09T00:47:18;4.80;;;3.45;;
13244;SDS011;6689;53.400;12.486;2023-07-09T00:49:59;5.22;;;3.50;;
13244;SDS011;6689;53.400;12.486;2023-07-09T00:52:37;4.70;;;3.20;;
13244;SDS011;6689;53.400;12.486;2023-07-09T00:55:14;5.32;;;3.50;;
13244;SDS011;6689;53.400;12.486;2023-07-09T00:57:47;8.45;;;3.70;;
13244;SDS011;6689;53.400;12.486;2023-07-09T01:00:21;7.30;;;3.53;;
13244;SDS011;6689;53.400;12.486;2023-07-09T01:02:53;4.65;;;3.10;;
13244;SDS011;6689;53.400;12.486;2023-07-09T01:05:20;5.07;;;3.45;;
13244;SDS011;6689;53.400;12.486;2023-07-09T01:07:48;7.38;;;3.65;;
13244;SDS011;6689;53.400;12.486;2023-07-09T01:10:17;3.83;;;2.90;;
13244;SDS011;6689;53.400;12.486;2023-07-09T01:12:46;6.55;;;3.50;;
13244;SDS011;6689;53.400;12.486;2023-07-09T01:15:15;4.90;;;3.72;;
13244;SDS011;6689;53.400;12.486;2023-07-09T01:17:43;5.35;;;3.72;;
13244;SDS011;6689;53.400;12.486;2023-07-09T01:20:15;4.72;;;3.60;;
13244;SDS011;6689;53.400;12.486;2023-07-09T01:22:48;6.55;;;3.72;;
13244;SDS011;6689;53.400;12.486;2023-07-09T01:25:19;5.60;;;3.30;;
13244;SDS011;6689;53.400;12.486;2023-07-09T01:27:48;4.30;;;3.53;;
13244;SDS011;6689;53.400;12.486;2023-07-09T01:30:17;4.95;;;3.72;;
13244;SDS011;6689;53.400;12.486;2023-07-09T01:32:47;4.80;;;3.67;;
13244;SDS011;6689;53.400;12.486;2023-07-09T01:35:16;5.88;;;3.63;;
13244;SDS011;6689;53.400;12.486;2023-07-09T01:37:45;6.53;;;4.00;;
13244;SDS011;6689;53.400;12.486;2023-07-09T01:40:15;6.03;;;3.88;;
13244;SDS011;6689;53.400;12.486;2023-07-09T01:42:44;3.95;;;3.53;;
13244;SDS011;6689;53.400;12.486;2023-07-09T01:45:12;4.07;;;3.58;;
13244;SDS011;6689;53.400;12.486;2023-07-09T01:47:40;8.43;;;3.85;;
13244;SDS011;6689;53.400;12.486;2023-07-09T01:50:09;5.38;;;3.63;;
13244;SDS011;6689;53.400;12.486;2023-07-09T01:52:38;6.13;;;4.07;;
13244;SDS011;6689;53.400;12.486;2023-07-09T01:55:07;5.45;;;3.75;;
13244;SDS011;6689;53.400;12.486;2023-07-09T01:57:37;5.53;;;4.10;;
13244;SDS011;6689;53.400;12.486;2023-07-09T02:00:07;5.60;;;3.65;;
13244;SDS011;6689;53.400;12.486;2023-07-09T02:02:38;5.53;;;4.35;;
13244;SDS011;6689;53.400;12.486;2023-07-09T02:05:08;4.53;;;3.45;;
13244;SDS011;6689;53.400;12.486;2023-07-09T02:07:37;5.32;;;3.60;;
13244;SDS011;6689;53.400;12.486;2023-07-09T02:10:05;4.18;;;3.67;;
13244;SDS011;6689;53.400;12.486;2023-07-09T02:12:33;5.15;;;3.45;;
13244;SDS011;6689;53.400;12.486;2023-07-09T02:15:02;5.53;;;3.58;;
13244;SDS011;6689;53.400;12.486;2023-07-09T02:17:29;8.65;;;4.90;;
13244;SDS011;6689;53.400;12.486;2023-07-09T02:19:57;5.35;;;4.55;;
13244;SDS011;6689;53.400;12.486;2023-07-09T02:22:24;4.90;;;3.97;;
13244;SDS011;6689;53.400;12.486;2023-07-09T02:24:51;5.80;;;3.55;;
13244;SDS011;6689;53.400;12.486;2023-07-09T02:27:19;4.65;;;3.33;;
13244;SDS011;6689;53.400;12.486;2023-07-09T02:29:47;3.97;;;3.58;;
13244;SDS011;6689;53.400;12.486;2023-07-09T02:32:18;5.10;;;3.75;;
13244;SDS011;6689;53.400;12.486;2023-07-09T02:34:46;4.95;;;3.92;;
13244;SDS011;6689;53.400;12.486;2023-07-09T02:37:18;5.25;;;3.90;;
13244;SDS011;6689;53.400;12.486;2023-07-09T02:39:47;5.28;;;3.50;;
13244;SDS011;6689;53.400;12.486;2023-07-09T02:42:15;6.43;;;4.05;;
13244;SDS011;6689;53.400;12.486;2023-07-09T02:44:44;6.80;;;4.10;;
13244;SDS011;6689;53.400;12.486;2023-07-09T02:47:27;6.47;;;3.90;;
13244;SDS011;6689;53.400;12.486;2023-07-09T02:49:54;5.63;;;4.07;;
13244;SDS011;6689;53.400;12.486;2023-07-09T02:52:22;6.13;;;4.43;;
13244;SDS011;6689;53.400;12.486;2023-07-09T02:54:50;5.25;;;4.05;;
13244;SDS011;6689;53.400;12.486;2023-07-09T02:57:17;6.15;;;4.22;;
13244;SDS011;6689;53.400;12.486;2023-07-09T02:59:44;5.47;;;4.05;;
13244;SDS011;6689;53.400;12.486;2023-07-09T03:02:12;5.40;;;4.40;;
13244;SDS011;6689;53.400;12.486;2023-07-09T03:04:40;5.93;;;3.55;;
13244;SDS011;6689;53.400;12.486;2023-07-09T03:07:07;7.22;;;3.75;;
13244;SDS011;6689;53.400;12.486;2023-07-09T03:09:35;6.70;;;3.70;;
13244;SDS011;6689;53.400;12.486;2023-07-09T03:12:02;4.88;;;4.05;;
13244;SDS011;6689;53.400;12.486;2023-07-09T03:14:29;5.05;;;4.13;;
13244;SDS011;6689;53.400;12.486;2023-07-09T03:16:57;4.45;;;4.05;;
13244;SDS011;6689;53.400;12.486;2023-07-09T03:19:24;4.78;;;3.92;;
13244;SDS011;6689;53.400;12.486;2023-07-09T03:21:53;5.35;;;4.20;;
13244;SDS011;6689;53.400;12.486;2023-07-09T03:24:20;4.38;;;3.80;;
13244;SDS011;6689;53.400;12.486;2023-07-09T03:26:47;5.97;;;3.88;;
13244;SDS011;6689;53.400;12.486;2023-07-09T03:29:15;5.45;;;4.07;;
13244;SDS011;6689;53.400;12.486;2023-07-09T03:31:42;8.80;;;4.10;;
13244;SDS011;6689;53.400;12.486;2023-07-09T03:34:09;4.95;;;3.80;;
13244;SDS011;6689;53.400;12.486;2023-07-09T03:36:37;7.88;;;4.40;;
13244;SDS011;6689;53.400;12.486;2023-07-09T03:39:05;4.90;;;4.00;;
13244;SDS011;6689;53.400;12.486;2023-07-09T03:41:33;4.68;;;4.20;;
13244;SDS011;6689;53.400;12.486;2023-07-09T03:44:00;5.85;;;4.35;;
13244;SDS011;6689;53.400;12.486;2023-07-09T03:46:28;5.43;;;3.95;;
13244;SDS011;6689;53.400;12.486;2023-07-09T03:48:57;5.53;;;4.03;;
13244;SDS011;6689;53.400;12.486;2023-07-09T03:51:26;4.70;;;4.20;;
13244;SDS011;6689;53.400;12.486;2023-07-09T03:53:53;9.10;;;4.50;;
13244;SDS011;6689;53.400;12.486;2023-07-09T03:56:22;6.25;;;4.35;;
13244;SDS011;6689;53.400;12.486;2023-07-09T03:58:49;4.95;;;4.28;;
13244;SDS011;6689;53.400;12.486;2023-07-09T04:01:17;4.50;;;4.07;;
13244;SDS011;6689;53.400;12.486;2023-07-09T04:03:45;9.93;;;4.47;;
13244;SDS011;6689;53.400;12.486;2023-07-09T04:06:12;5.82;;;4.22;;
13244;SDS011;6689;53.400;12.486;2023-07-09T04:08:39;7.05;;;4.78;;
13244;SDS011;6689;53.400;12.486;2023-07-09T04:11:06;5.45;;;4.20;;
13244;SDS011;6689;53.400;12.486;2023-07-09T04:13:35;6.68;;;4.35;;
13244;SDS011;6689;53.400;12.486;2023-07-09T04:16:02;5.07;;;4.03;;
13244;SDS011;6689;53.400;12.486;2023-07-09T04:18:30;7.07;;;4.55;;
13244;SDS011;6689;53.400;12.486;2023-07-09T04:20:57;5.72;;;4.53;;
13244;SDS011;6689;53.400;12.486;2023-07-09T04:23:24;5.63;;;4.25;;
13244;SDS011;6689;53.400;12.486;2023-07-09T04:25:52;7.85;;;4.60;;
13244;SDS011;6689;53.400;12.486;2023-07-09T04:28:19;6.50;;;4.70;;
13244;SDS011;6689;53.400;12.486;2023-07-09T04:30:48;5.53;;;3.88;;
13244;SDS011;6689;53.400;12.486;2023-07-09T04:33:17;5.47;;;3.97;;
13244;SDS011;6689;53.400;12.486;2023-07-09T04:35:45;6.13;;;3.92;;
13244;SDS011;6689;53.400;12.486;2023-07-09T04:38:13;7.18;;;3.55;;
13244;SDS011;6689;53.400;12.486;2023-07-09T04:40:40;8.73;;;4.40;;
13244;SDS011;6689;53.400;12.486;2023-07-09T04:43:07;7.45;;;3.80;;
13244;SDS011;6689;53.400;12.486;2023-07-09T04:45:37;6.10;;;3.72;;
13244;SDS011;6689;53.400;12.486;2023-07-09T04:48:06;4.45;;;3.47;;
13244;SDS011;6689;53.400;12.486;2023-07-09T04:50:34;5.38;;;4.13;;
13244;SDS011;6689;53.400;12.486;2023-07-09T04:53:01;7.38;;;4.15;;
13244;SDS011;6689;53.400;12.486;2023-07-09T04:55:28;5.85;;;5.25;;
13244;SDS011;6689;53.400;12.486;2023-07-09T04:57:56;7.80;;;4.93;;
13244;SDS011;6689;53.400;12.486;2023-07-09T05:00:23;7.32;;;4.97;;
13244;SDS011;6689;53.400;12.486;2023-07-09T05:02:50;7.30;;;5.32;;
13244;SDS011;6689;53.400;12.486;2023-07-09T05:05:19;8.20;;;4.80;;
13244;SDS011;6689;53.400;12.486;2023-07-09T05:07:46;7.00;;;5.07;;
13244;SDS011;6689;53.400;12.486;2023-07-09T05:10:14;7.05;;;4.57;;
13244;SDS011;6689;53.400;12.486;2023-07-09T05:12:48;6.80;;;4.80;;
13244;SDS011;6689;53.400;12.486;2023-07-09T05:17:44;7.03;;;5.20;;
13244;SDS011;6689;53.400;12.486;2023-07-09T05:20:11;10.15;;;5.63;;
13244;SDS011;6689;53.400;12.486;2023-07-09T05:22:41;5.80;;;4.05;;
13244;SDS011;6689;53.400;12.486;2023-07-09T05:25:08;7.88;;;4.50;;
13244;SDS011;6689;53.400;12.486;2023-07-09T05:27:36;5.72;;;4.13;;
13244;SDS011;6689;53.400;12.486;2023-07-09T05:30:03;5.95;;;4.20;;
13244;SDS011;6689;53.400;12.486;2023-07-09T05:32:31;6.75;;;4.95;;
13244;SDS011;6689;53.400;12.486;2023-07-09T05:34:58;6.38;;;4.38;;
13244;SDS011;6689;53.400;12.486;2023-07-09T05:37:26;6.90;;;4.57;;
13244;SDS011;6689;53.400;12.486;2023-07-09T05:39:55;6.38;;;4.55;;
13244;SDS011;6689;53.400;12.486;2023-07-09T05:42:23;5.70;;;4.28;;
13244;SDS011;6689;53.400;12.486;2023-07-09T05:44:51;5.70;;;4.32;;
13244;SDS011;6689;53.400;12.486;2023-07-09T05:47:18;5.20;;;3.50;;
13244;SDS011;6689;53.400;12.486;2023-07-09T05:49:45;7.18;;;4.22;;
13244;SDS011;6689;53.400;12.486;2023-07-09T05:52:15;6.43;;;3.95;;
13244;SDS011;6689;53.400;12.486;2023-07-09T05:54:42;6.88;;;3.72;;
13244;SDS011;6689;53.400;12.486;2023-07-09T05:57:11;4.53;;;3.83;;
13244;SDS011;6689;53.400;12.486;2023-07-09T05:59:39;5.38;;;4.18;;
13244;SDS011;6689;53.400;12.486;2023-07-09T06:02:07;5.30;;;4.68;;
13244;SDS011;6689;53.400;12.486;2023-07-09T06:04:37;7.55;;;4.57;;
13244;SDS011;6689;53.400;12.486;2023-07-09T06:07:05;5.68;;;3.40;;
13244;SDS011;6689;53.400;12.486;2023-07-09T06:09:32;7.03;;;4.03;;
13244;SDS011;6689;53.400;12.486;2023-07-09T06:11:59;6.38;;;4.00;;
13244;SDS011;6689;53.400;12.486;2023-07-09T06:14:28;6.90;;;3.97;;
13244;SDS011;6689;53.400;12.486;2023-07-09T06:16:57;4.88;;;4.07;;
13244;SDS011;6689;53.400;12.486;2023-07-09T06:19:25;5.78;;;4.80;;
13244;SDS011;6689;53.400;12.486;2023-07-09T06:21:52;5.65;;;4.15;;
13244;SDS011;6689;53.400;12.486;2023-07-09T06:24:21;5.90;;;4.00;;
13244;SDS011;6689;53.400;12.486;2023-07-09T06:26:49;5.57;;;4.35;;
13244;SDS011;6689;53.400;12.486;2023-07-09T06:29:16;5.90;;;4.28;;
13244;SDS011;6689;53.400;12.486;2023-07-09T06:31:45;4.68;;;3.50;;
13244;SDS011;6689;53.400;12.486;2023-07-09T06:34:12;6.07;;;3.90;;
13244;SDS011;6689;53.400;12.486;2023-07-09T06:36:39;6.95;;;3.92;;
13244;SDS011;6689;53.400;12.486;2023-07-09T06:39:07;7.60;;;4.53;;
13244;SDS011;6689;53.400;12.486;2023-07-09T06:41:34;5.18;;;3.50;;
13244;SDS011;6689;53.400;12.486;2023-07-09T06:44:04;6.20;;;3.80;;
13244;SDS011;6689;53.400;12.486;2023-07-09T06:46:32;4.45;;;3.22;;
13244;SDS011;6689;53.400;12.486;2023-07-09T06:49:02;5.63;;;3.58;;
13244;SDS011;6689;53.400;12.486;2023-07-09T06:51:31;6.03;;;3.60;;
13244;SDS011;6689;53.400;12.486;2023-07-09T06:53:59;8.63;;;3.80;;
13244;SDS011;6689;53.400;12.486;2023-07-09T06:56:26;5.72;;;3.47;;
13244;SDS011;6689;53.400;12.486;2023-07-09T06:58:53;8.02;;;3.42;;
13244;SDS011;6689;53.400;12.486;2023-07-09T07:01:21;5.45;;;3.60;;
13244;SDS011;6689;53.400;12.486;2023-07-09T07:03:48;4.50;;;3.38;;
13244;SDS011;6689;53.400;12.486;2023-07-09T07:06:17;5.00;;;3.78;;
13244;SDS011;6689;53.400;12.486;2023-07-09T07:08:44;6.57;;;3.58;;
13244;SDS011;6689;53.400;12.486;2023-07-09T07:11:12;6.45;;;3.28;;
13244;SDS011;6689;53.400;12.486;2023-07-09T07:13:41;5.93;;;3.10;;
13244;SDS011;6689;53.400;12.486;2023-07-09T07:16:09;4.15;;;3.75;;
13244;SDS011;6689;53.400;12.486;2023-07-09T07:18:38;6.28;;;3.33;;
13244;SDS011;6689;53.400;12.486;2023-07-09T07:21:06;5.75;;;3.30;;
13244;SDS011;6689;53.400;12.486;2023-07-09T07:23:35;4.57;;;3.28;;
13244;SDS011;6689;53.400;12.486;2023-07-09T07:26:02;6.32;;;3.53;;
13244;SDS011;6689;53.400;12.486;2023-07-09T07:28:30;3.78;;;3.30;;
13244;SDS011;6689;53.400;12.486;2023-07-09T07:30:57;3.60;;;2.92;;
13244;SDS011;6689;53.400;12.486;2023-07-09T07:33:25;5.57;;;3.45;;
13244;SDS011;6689;53.400;12.486;2023-07-09T07:35:52;5.57;;;3.20;;
13244;SDS011;6689;53.400;12.486;2023-07-09T07:38:20;4.80;;;3.58;;
13244;SDS011;6689;53.400;12.486;2023-07-09T07:40:49;6.90;;;3.22;;
13244;SDS011;6689;53.400;12.486;2023-07-09T07:43:16;6.00;;;3.00;;
13244;SDS011;6689;53.400;12.486;2023-07-09T07:45:44;7.28;;;4.13;;
13244;SDS011;6689;53.400;12.486;2023-07-09T07:48:14;5.10;;;2.85;;
13244;SDS011;6689;53.400;12.486;2023-07-09T07:50:41;4.82;;;3.05;;
13244;SDS011;6689;53.400;12.486;2023-07-09T07:53:11;4.35;;;3.10;;
13244;SDS011;6689;53.400;12.486;2023-07-09T07:55:38;5.15;;;3.38;;
13244;SDS011;6689;53.400;12.486;2023-07-09T07:58:09;5.65;;;2.92;;
13244;SDS011;6689;53.400;12.486;2023-07-09T08:00:38;4.63;;;2.90;;
13244;SDS011;6689;53.400;12.486;2023-07-09T08:03:05;8.60;;;3.20;;
13244;SDS011;6689;53.400;12.486;2023-07-09T08:05:32;5.53;;;3.75;;
13244;SDS011;6689;53.400;12.486;2023-07-09T08:08:00;4.50;;;3.22;;
13244;SDS011;6689;53.400;12.486;2023-07-09T08:10:27;6.97;;;3.10;;
13244;SDS011;6689;53.400;12.486;2023-07-09T08:12:54;4.22;;;3.03;;
13244;SDS011;6689;53.400;12.486;2023-07-09T08:15:24;9.52;;;3.33;;
13244;SDS011;6689;53.400;12.486;2023-07-09T08:17:51;4.43;;;2.80;;
13244;SDS011;6689;53.400;12.486;2023-07-09T08:20:18;6.10;;;3.55;;
13244;SDS011;6689;53.400;12.486;2023-07-09T08:22:46;5.93;;;3.20;;
13244;SDS011;6689;53.400;12.486;2023-07-09T08:25:13;12.48;;;3.08;;
13244;SDS011;6689;53.400;12.486;2023-07-09T08:27:40;3.60;;;2.85;;
13244;SDS011;6689;53.400;12.486;2023-07-09T08:30:08;4.60;;;3.17;;
13244;SDS011;6689;53.400;12.486;2023-07-09T08:32:37;3.25;;;2.85;;
13244;SDS011;6689;53.400;12.486;2023-07-09T08:35:05;4.75;;;3.20;;
13244;SDS011;6689;53.400;12.486;2023-07-09T08:37:35;5.03;;;2.70;;
13244;SDS011;6689;53.400;12.486;2023-07-09T08:40:03;3.63;;;2.70;;
13244;SDS011;6689;53.400;12.486;2023-07-09T08:42:33;3.38;;;2.70;;
13244;SDS011;6689;53.400;12.486;2023-07-09T08:45:09;3.85;;;2.88;;
13244;SDS011;6689;53.400;12.486;2023-07-09T08:47:47;3.58;;;2.83;;
13244;SDS011;6689;53.400;12.486;2023-07-09T08:50:24;5.97;;;2.75;;
13244;SDS011;6689;53.400;12.486;2023-07-09T08:52:58;7.00;;;3.10;;
13244;SDS011;6689;53.400;12.486;2023-07-09T08:55:27;7.80;;;3.47;;
13244;SDS011;6689;53.400;12.486;2023-07-09T08:58:02;7.00;;;2.92;;
13244;SDS011;6689;53.400;12.486;2023-07-09T09:00:41;6.18;;;2.97;;
13244;SDS011;6689;53.400;12.486;2023-07-09T09:03:15;4.13;;;2.60;;
13244;SDS011;6689;53.400;12.486;2023-07-09T09:05:49;5.03;;;2.72;;
13244;SDS011;6689;53.400;12.486;2023-07-09T09:08:26;3.33;;;2.70;;
13244;SDS011;6689;53.400;12.486;2023-07-09T09:11:07;2.95;;;2.60;;
13244;SDS011;6689;53.400;12.486;2023-07-09T09:13:42;4.82;;;2.92;;
13244;SDS011;6689;53.400;12.486;2023-07-09T09:16:14;4.25;;;2.95;;
13244;SDS011;6689;53.400;12.486;2023-07-09T09:18:52;4.10;;;2.50;;
13244;SDS011;6689;53.400;12.486;2023-07-09T09:21:24;4.35;;;2.83;;
13244;SDS011;6689;53.400;12.486;2023-07-09T09:23:57;3.60;;;2.72;;
13244;SDS011;6689;53.400;12.486;2023-07-09T09:26:28;3.63;;;2.88;;
13244;SDS011;6689;53.400;12.486;2023-07-09T09:28:58;3.63;;;3.17;;
13244;SDS011;6689;53.400;12.486;2023-07-09T09:31:26;3.70;;;2.85;;
13244;SDS011;6689;53.400;12.486;2023-07-09T09:33:56;3.30;;;2.47;;
13244;SDS011;6689;53.400;12.486;2023-07-09T09:36:24;4.35;;;3.63;;
13244;SDS011;6689;53.400;12.486;2023-07-09T09:38:53;3.95;;;3.03;;
13244;SDS011;6689;53.400;12.486;2023-07-09T09:41:22;4.50;;;2.90;;
13244;SDS011;6689;53.400;12.486;2023-07-09T09:43:51;3.08;;;2.67;;
13244;SDS011;6689;53.400;12.486;2023-07-09T09:46:20;5.80;;;3.10;;
13244;SDS011;6689;53.400;12.486;2023-07-09T09:48:50;4.63;;;3.58;;
13244;SDS011;6689;53.400;12.486;2023-07-09T09:51:22;4.35;;;2.97;;
13244;SDS011;6689;53.400;12.486;2023-07-09T09:53:55;5.78;;;3.15;;
13244;SDS011;6689;53.400;12.486;2023-07-09T09:58:54;5.15;;;3.00;;
13244;SDS011;6689;53.400;12.486;2023-07-09T10:01:25;4.90;;;3.30;;
13244;SDS011;6689;53.400;12.486;2023-07-09T10:03:57;5.40;;;3.03;;
13244;SDS011;6689;53.400;12.486;2023-07-09T10:06:32;6.07;;;3.17;;
13244;SDS011;6689;53.400;12.486;2023-07-09T10:09:02;4.88;;;2.80;;
13244;SDS011;6689;53.400;12.486;2023-07-09T10:11:41;5.65;;;2.83;;
13244;SDS011;6689;53.400;12.486;2023-07-09T10:14:22;4.07;;;2.72;;
13244;SDS011;6689;53.400;12.486;2023-07-09T10:16:59;3.40;;;3.10;;
13244;SDS011;6689;53.400;12.486;2023-07-09T10:19:32;5.90;;;3.17;;
13244;SDS011;6689;53.400;12.486;2023-07-09T10:22:10;5.47;;;3.63;;
13244;SDS011;6689;53.400;12.486;2023-07-09T10:24:47;4.18;;;2.72;;
13244;SDS011;6689;53.400;12.486;2023-07-09T10:27:21;3.72;;;3.35;;
13244;SDS011;6689;53.400;12.486;2023-07-09T10:29:59;4.55;;;2.63;;
13244;SDS011;6689;53.400;12.486;2023-07-09T10:32:42;6.82;;;3.53;;
13244;SDS011;6689;53.400;12.486;2023-07-09T10:35:18;4.72;;;3.03;;
13244;SDS011;6689;53.400;12.486;2023-07-09T10:37:59;4.50;;;3.13;;
13244;SDS011;6689;53.400;12.486;2023-07-09T10:40:49;4.93;;;3.00;;
13244;SDS011;6689;53.400;12.486;2023-07-09T10:43:21;3.40;;;2.95;;
13244;SDS011;6689;53.400;12.486;2023-07-09T10:45:59;8.13;;;3.45;;
13244;SDS011;6689;53.400;12.486;2023-07-09T10:48:31;5.35;;;2.95;;
13244;SDS011;6689;53.400;12.486;2023-07-09T10:51:04;4.03;;;2.88;;
13244;SDS011;6689;53.400;12.486;2023-07-09T10:53:43;4.22;;;3.13;;
13244;SDS011;6689;53.400;12.486;2023-07-09T10:56:12;6.38;;;3.35;;
13244;SDS011;6689;53.400;12.486;2023-07-09T10:58:44;4.90;;;3.03;;
13244;SDS011;6689;53.400;12.486;2023-07-09T11:01:16;5.78;;;3.05;;
13244;SDS011;6689;53.400;12.486;2023-07-09T11:03:49;3.42;;;3.10;;
13244;SDS011;6689;53.400;12.486;2023-07-09T11:06:20;5.07;;;2.85;;
13244;SDS011;6689;53.400;12.486;2023-07-09T11:08:53;6.38;;;3.50;;
13244;SDS011;6689;53.400;12.486;2023-07-09T11:11:29;3.53;;;2.97;;
13244;SDS011;6689;53.400;12.486;2023-07-09T11:14:02;4.80;;;2.78;;
13244;SDS011;6689;53.400;12.486;2023-07-09T11:16:37;4.50;;;3.05;;
13244;SDS011;6689;53.400;12.486;2023-07-09T11:19:11;8.45;;;2.95;;
13244;SDS011;6689;53.400;12.486;2023-07-09T11:21:57;4.40;;;2.67;;
13244;SDS011;6689;53.400;12.486;2023-07-09T11:24:33;4.13;;;2.90;;
13244;SDS011;6689;53.400;12.486;2023-07-09T11:27:02;3.00;;;2.70;;
13244;SDS011;6689;53.400;12.486;2023-07-09T11:29:45;3.40;;;2.83;;
13244;SDS011;6689;53.400;12.486;2023-07-09T11:32:17;3.10;;;2.80;;
13244;SDS011;6689;53.400;12.486;2023-07-09T11:34:47;3.95;;;3.17;;
13244;SDS011;6689;53.400;12.486;2023-07-09T11:37:15;4.22;;;3.00;;
13244;SDS011;6689;53.400;12.486;2023-07-09T11:39:49;4.60;;;3.33;;
13244;SDS011;6689;53.400;12.486;2023-07-09T11:42:26;7.20;;;2.90;;
13244;SDS011;6689;53.400;12.486;2023-07-09T11:45:04;6.80;;;2.75;;
13244;SDS011;6689;53.400;12.486;2023-07-09T11:47:37;7.32;;;3.65;;
13244;SDS011;6689;53.400;12.486;2023-07-09T11:50:13;3.15;;;2.50;;
13244;SDS011;6689;53.400;12.486;2023-07-09T11:52:50;8.98;;;3.33;;
13244;SDS011;6689;53.400;12.486;2023-07-09T11:55:28;5.65;;;3.30;;
13244;SDS011;6689;53.400;12.486;2023-07-09T11:58:00;5.55;;;3.67;;
13244;SDS011;6689;53.400;12.486;2023-07-09T12:00:29;4.57;;;2.75;;
13244;SDS011;6689;53.400;12.486;2023-07-09T12:03:04;4.53;;;3.33;;
13244;SDS011;6689;53.400;12.486;2023-07-09T12:05:31;4.72;;;3.35;;
13244;SDS011;6689;53.400;12.486;2023-07-09T12:07:59;5.05;;;3.05;;
13244;SDS011;6689;53.400;12.486;2023-07-09T12:10:32;4.30;;;2.97;;
13244;SDS011;6689;53.400;12.486;2023-07-09T12:13:00;3.90;;;3.33;;
13244;SDS011;6689;53.400;12.486;2023-07-09T12:15:29;4.60;;;3.20;;
13244;SDS011;6689;53.400;12.486;2023-07-09T12:17:59;3.03;;;2.72;;
13244;SDS011;6689;53.400;12.486;2023-07-09T12:20:30;4.50;;;3.42;;
13244;SDS011;6689;53.400;12.486;2023-07-09T12:23:00;6.68;;;3.45;;
13244;SDS011;6689;53.400;12.486;2023-07-09T12:25:38;5.28;;;3.25;;
13244;SDS011;6689;53.400;12.486;2023-07-09T12:28:13;4.40;;;3.13;;
13244;SDS011;6689;53.400;12.486;2023-07-09T12:30:44;4.88;;;3.22;;
13244;SDS011;6689;53.400;12.486;2023-07-09T12:33:12;4.53;;;3.28;;
13244;SDS011;6689;53.400;12.486;2023-07-09T12:35:43;4.78;;;3.42;;
13244;SDS011;6689;53.400;12.486;2023-07-09T12:38:15;5.40;;;3.58;;
13244;SDS011;6689;53.400;12.486;2023-07-09T12:40:48;5.05;;;2.83;;
13244;SDS011;6689;53.400;12.486;2023-07-09T12:43:17;5.03;;;3.10;;
13244;SDS011;6689;53.400;12.486;2023-07-09T12:45:50;9.02;;;3.95;;
13244;SDS011;6689;53.400;12.486;2023-07-09T12:48:18;3.78;;;3.35;;
13244;SDS011;6689;53.400;12.486;2023-07-09T12:50:49;4.53;;;3.17;;
13244;SDS011;6689;53.400;12.486;2023-07-09T12:53:19;3.75;;;3.20;;
13244;SDS011;6689;53.400;12.486;2023-07-09T12:55:48;4.30;;;3.00;;
13244;SDS011;6689;53.400;12.486;2023-07-09T12:58:19;3.40;;;2.75;;
13244;SDS011;6689;53.400;12.486;2023-07-09T13:00:48;6.43;;;3.58;;
13244;SDS011;6689;53.400;12.486;2023-07-09T13:03:18;6.45;;;3.80;;
13244;SDS011;6689;53.400;12.486;2023-07-09T13:05:56;5.30;;;4.05;;
13244;SDS011;6689;53.400;12.486;2023-07-09T13:08:25;5.78;;;4.38;;
13244;SDS011;6689;53.400;12.486;2023-07-09T13:10:55;4.50;;;3.45;;
13244;SDS011;6689;53.400;12.486;2023-07-09T13:13:23;7.57;;;6.88;;
13244;SDS011;6689;53.400;12.486;2023-07-09T13:15:52;4.32;;;3.65;;
13244;SDS011;6689;53.400;12.486;2023-07-09T13:18:24;7.28;;;5.20;;
13244;SDS011;6689;53.400;12.486;2023-07-09T13:20:56;4.95;;;3.58;;
13244;SDS011;6689;53.400;12.486;2023-07-09T13:23:25;4.47;;;3.40;;
13244;SDS011;6689;53.400;12.486;2023-07-09T13:25:57;6.15;;;3.10;;
13244;SDS011;6689;53.400;12.486;2023-07-09T13:28:27;6.07;;;3.70;;
13244;SDS011;6689;53.400;12.486;2023-07-09T13:30:56;4.28;;;3.88;;
13244;SDS011;6689;53.400;12.486;2023-07-09T13:33:26;4.75;;;3.13;;
13244;SDS011;6689;53.400;12.486;2023-07-09T13:35:54;6.20;;;3.40;;
13244;SDS011;6689;53.400;12.486;2023-07-09T13:38:22;4.85;;;3.63;;
13244;SDS011;6689;53.400;12.486;2023-07-09T13:40:51;4.07;;;3.45;;
13244;SDS011;6689;53.400;12.486;2023-07-09T13:43:26;4.07;;;3.10;;
13244;SDS011;6689;53.400;12.486;2023-07-09T13:45:56;3.95;;;3.03;;
13244;SDS011;6689;53.400;12.486;2023-07-09T13:48:24;6.90;;;3.42;;
13244;SDS011;6689;53.400;12.486;2023-07-09T13:50:53;7.72;;;3.63;;
13244;SDS011;6689;53.400;12.486;2023-07-09T13:53:22;8.20;;;3.60;;
13244;SDS011;6689;53.400;12.486;2023-07-09T13:55:51;3.97;;;3.55;;
13244;SDS011;6689;53.400;12.486;2023-07-09T13:58:20;5.20;;;3.22;;
13244;SDS011;6689;53.400;12.486;2023-07-09T14:00:54;5.00;;;3.28;;
13244;SDS011;6689;53.400;12.486;2023-07-09T14:03:26;6.43;;;3.75;;
13244;SDS011;6689;53.400;12.486;2023-07-09T14:05:56;5.80;;;3.55;;
13244;SDS011;6689;53.400;12.486;2023-07-09T14:08:24;3.95;;;3.40;;
13244;SDS011;6689;53.400;12.486;2023-07-09T14:10:55;6.70;;;3.65;;
13244;SDS011;6689;53.400;12.486;2023-07-09T14:13:23;5.38;;;3.70;;
13244;SDS011;6689;53.400;12.486;2023-07-09T14:15:52;5.15;;;3.67;;
13244;SDS011;6689;53.400;12.486;2023-07-09T14:18:20;5.32;;;3.30;;
13244;SDS011;6689;53.400;12.486;2023-07-09T14:20:51;7.38;;;3.83;;
13244;SDS011;6689;53.400;12.486;2023-07-09T14:23:19;4.85;;;3.75;;
13244;SDS011;6689;53.400;12.486;2023-07-09T14:25:46;6.32;;;3.58;;
13244;SDS011;6689;53.400;12.486;2023-07-09T14:28:15;4.28;;;3.55;;
13244;SDS011;6689;53.400;12.486;2023-07-09T14:30:44;5.32;;;3.75;;
13244;SDS011;6689;53.400;12.486;2023-07-09T14:33:14;6.32;;;3.72;;
13244;SDS011;6689;53.400;12.486;2023-07-09T14:35:42;3.95;;;3.15;;
13244;SDS011;6689;53.400;12.486;2023-07-09T14:38:14;6.22;;;3.85;;
13244;SDS011;6689;53.400;12.486;2023-07-09T14:40:45;5.78;;;3.42;;
13244;SDS011;6689;53.400;12.486;2023-07-09T14:43:12;7.00;;;3.10;;
13244;SDS011;6689;53.400;12.486;2023-07-09T14:45:40;4.65;;;3.60;;
13244;SDS011;6689;53.400;12.486;2023-07-09T14:48:09;4.75;;;3.80;;
13244;SDS011;6689;53.400;12.486;2023-07-09T14:50:41;5.13;;;3.70;;
13244;SDS011;6689;53.400;12.486;2023-07-09T14:53:13;6.75;;;4.00;;
13244;SDS011;6689;53.400;12.486;2023-07-09T14:55:41;4.78;;;3.97;;
13244;SDS011;6689;53.400;12.486;2023-07-09T14:58:17;7.13;;;3.80;;
13244;SDS011;6689;53.400;12.486;2023-07-09T15:00:45;3.97;;;3.40;;
13244;SDS011;6689;53.400;12.486;2023-07-09T15:03:15;6.72;;;3.60;;
13244;SDS011;6689;53.400;12.486;2023-07-09T15:05:46;5.45;;;3.60;;
13244;SDS011;6689;53.400;12.486;2023-07-09T15:08:16;4.15;;;3.50;;
13244;SDS011;6689;53.400;12.486;2023-07-09T15:10:44;3.78;;;3.28;;